Time;durP1;ratioP1;P1;durP2;ratioP2;P2;SDS_P1;SDS_P2;PMS_P1;PMS_P2;Temp;Humidity;BMP_temperature;BMP_pressure;BME280_temperature;BME280_humidity;BME280_pressure;Samples;Min_cycle;Max_cycle;Signal;HPM_P1;HPM_P2
2022/12/12 00:02:03;;;;;;;39.38;14.25;;;;;;;-0.32;100.00;101093.22;5007424;28;20045;-73
2022/12/12 00:04:29;;;;;;;37.67;14.90;;;;;;;-0.38;100.00;101101.56;5009988;28;20025;-72
2022/12/12 00:06:54;;;;;;;40.85;14.60;;;;;;;-0.49;100.00;101098.78;5010890;28;20033;-73
2022/12/12 00:09:19;;;;;;;38.53;14.27;;;;;;;-0.60;100.00;101100.16;5008149;28;20030;-73
2022/12/12 00:11:45;;;;;;;38.28;13.48;;;;;;;-0.71;100.00;101095.63;5011488;28;20033;-73
2022/12/12 00:14:10;;;;;;;35.30;14.30;;;;;;;-0.83;100.00;101103.81;5009761;28;20029;-73
2022/12/12 00:16:36;;;;;;;32.90;13.88;;;;;;;-0.97;100.00;101103.44;5009887;28;20467;-72
2022/12/12 00:19:01;;;;;;;36.95;14.38;;;;;;;-1.11;100.00;101104.75;5008866;28;20392;-73
2022/12/12 00:21:28;;;;;;;33.72;13.80;;;;;;;-1.21;100.00;101107.84;5010663;28;20068;-72
2022/12/12 00:23:54;;;;;;;33.38;13.90;;;;;;;-1.32;100.00;101111.78;5010546;28;20028;-73
2022/12/12 00:26:21;;;;;;;36.05;14.00;;;;;;;-1.42;100.00;101102.16;5016286;28;20558;-73
2022/12/12 00:28:47;;;;;;;35.80;13.77;;;;;;;-1.56;100.00;101101.75;5009210;28;20538;-76
2022/12/12 00:31:13;;;;;;;38.03;14.25;;;;;;;-1.62;100.00;101104.13;5009729;28;20040;-76
2022/12/12 00:33:39;;;;;;;37.65;13.95;;;;;;;-1.72;100.00;101104.69;5009168;28;20485;-76
2022/12/12 00:36:04;;;;;;;37.25;14.23;;;;;;;-1.76;100.00;101105.38;5009575;28;20026;-76
2022/12/12 00:38:30;;;;;;;38.03;15.35;;;;;;;-1.83;100.00;101104.34;5010098;28;20154;-76
2022/12/12 00:40:57;;;;;;;36.95;13.65;;;;;;;-1.90;100.00;101101.56;5015051;28;20542;-76
2022/12/12 00:43:23;;;;;;;37.15;14.13;;;;;;;-1.95;100.00;101103.97;5009434;28;20061;-76
2022/12/12 00:45:48;;;;;;;37.78;14.10;;;;;;;-2.01;100.00;101108.84;5009299;28;20044;-76
2022/12/12 00:48:14;;;;;;;37.30;13.95;;;;;;;-2.05;100.00;101109.59;5010144;28;20030;-76
2022/12/12 00:50:39;;;;;;;35.55;14.32;;;;;;;-2.09;100.00;101105.22;5009840;28;20381;-76
2022/12/12 00:53:04;;;;;;;36.20;13.85;;;;;;;-2.14;100.00;101109.28;4992291;28;20113;-76
2022/12/12 00:55:30;;;;;;;38.15;14.20;;;;;;;-2.19;100.00;101110.84;5015582;28;20022;-76
2022/12/12 00:57:55;;;;;;;36.05;13.60;;;;;;;-2.25;100.00;101108.94;5007364;28;20535;-76
2022/12/12 01:00:21;;;;;;;42.58;15.32;;;;;;;-2.27;100.00;101110.59;5009154;28;20066;-76
2022/12/12 01:02:47;;;;;;;42.47;14.88;;;;;;;-2.29;100.00;101109.66;5010048;28;20484;-76
2022/12/12 01:05:14;;;;;;;36.05;14.50;;;;;;;-2.34;100.00;101106.13;5008833;28;20026;-76
2022/12/12 01:07:39;;;;;;;38.22;14.82;;;;;;;-2.36;100.00;101109.41;5003093;28;20057;-76
2022/12/12 01:10:06;;;;;;;39.30;14.23;;;;;;;-2.40;100.00;101118.63;5009158;28;20492;-76
2022/12/12 01:12:31;;;;;;;40.10;14.45;;;;;;;-2.44;100.00;101122.72;5018770;28;20081;-76
2022/12/12 01:14:56;;;;;;;39.03;15.13;;;;;;;-2.48;100.00;101120.91;5009917;28;20396;-76
2022/12/12 01:17:22;;;;;;;43.55;14.93;;;;;;;-2.53;100.00;101130.03;5008680;28;20033;-76
2022/12/12 01:19:47;;;;;;;40.97;14.52;;;;;;;-2.54;100.00;101133.38;5009788;28;20052;-76
2022/12/12 01:22:13;;;;;;;43.10;14.85;;;;;;;-2.56;100.00;101137.53;5009480;28;20040;-76
2022/12/12 01:24:38;;;;;;;43.33;15.43;;;;;;;-2.59;100.00;101139.13;5009778;28;20014;-76
2022/12/12 01:27:04;;;;;;;39.40;14.52;;;;;;;-2.61;100.00;101148.34;5014072;28;20144;-76
2022/12/12 01:29:29;;;;;;;40.22;15.13;;;;;;;-2.65;100.00;101149.91;5008148;28;20029;-73
2022/12/12 01:31:54;;;;;;;40.55;14.65;;;;;;;-2.68;100.00;101149.81;4990581;28;20116;-73
2022/12/12 01:34:20;;;;;;;40.83;14.57;;;;;;;-2.71;100.00;101157.31;5011544;28;20022;-73
2022/12/12 01:36:45;;;;;;;40.90;14.68;;;;;;;-2.71;100.00;101153.91;5011371;28;20029;-73
2022/12/12 01:39:10;;;;;;;37.30;13.95;;;;;;;-2.72;100.00;101158.09;5008792;28;20113;-73
2022/12/12 01:41:36;;;;;;;41.65;14.80;;;;;;;-2.74;100.00;101161.41;5009311;28;20018;-73
2022/12/12 01:44:10;;;;;;;44.20;15.27;;;;;;;-2.74;100.00;101164.81;5009609;28;20397;-73
2022/12/12 01:46:38;;;;;;;;;;;;;;;-2.68;100.00;101164.16;5009735;28;20030;-73
2022/12/12 01:49:25;;;;;;;42.20;14.82;;;;;;;-2.66;100.00;101165.09;5008277;28;19917;-73
2022/12/12 01:51:57;;;;;;;42.95;14.55;;;;;;;-2.58;100.00;101169.59;5011109;28;20042;-73
2022/12/12 01:54:26;;;;;;;41.42;14.98;;;;;;;-2.56;100.00;101172.19;5011545;28;20080;-73
2022/12/12 01:56:55;;;;;;;42.40;15.60;;;;;;;-2.56;100.00;101165.44;5009387;28;20079;-73
2022/12/12 01:59:24;;;;;;;38.92;14.15;;;;;;;-2.54;100.00;101171.44;5008625;28;20058;-76
2022/12/12 02:01:51;;;;;;;47.47;15.63;;;;;;;-2.53;100.00;101174.84;5009798;28;20192;-77
2022/12/12 02:04:17;;;;;;;40.08;14.88;;;;;;;-2.52;100.00;101174.00;4990095;28;20052;-76
2022/12/12 02:06:42;;;;;;;45.45;15.70;;;;;;;-2.49;100.00;101174.13;5001868;28;20484;-76
2022/12/12 02:09:11;;;;;;;48.55;16.17;;;;;;;-2.49;100.00;101174.13;5007624;28;20096;-76
2022/12/12 02:11:45;;;;;;;41.17;15.30;;;;;;;-2.49;100.00;101172.47;5009102;28;20388;-76
2022/12/12 02:14:12;;;;;;;42.92;16.33;;;;;;;-2.47;100.00;101172.50;5008800;28;20062;-76
2022/12/12 02:16:49;;;;;;;44.13;15.85;;;;;;;-2.45;100.00;101171.75;5013430;28;20026;-76
2022/12/12 02:19:33;;;;;;;45.72;17.00;;;;;;;-2.42;100.00;101169.31;5011944;28;20040;-76
2022/12/12 02:22:09;;;;;;;41.47;15.45;;;;;;;-2.39;100.00;101177.00;5011910;28;20117;-76
2022/12/12 02:25:02;;;;;;;41.55;15.27;;;;;;;-2.40;100.00;101170.25;5012897;28;20030;-76
2022/12/12 02:27:59;;;;;;;42.10;15.18;;;;;;;-2.39;100.00;101171.09;5012812;28;20068;-76
2022/12/12 02:30:44;;;;;;;44.95;16.73;;;;;;;-2.38;100.00;101178.75;5012060;28;20033;-76
2022/12/12 02:33:29;;;;;;;40.47;15.38;;;;;;;-2.35;100.00;101172.06;5011863;28;20083;-76
2022/12/12 02:36:17;;;;;;;44.47;15.95;;;;;;;-2.29;100.00;101179.88;5011939;28;20038;-76
2022/12/12 02:38:52;;;;;;;47.50;17.20;;;;;;;-2.27;100.00;101179.13;5011393;28;20511;-76
2022/12/12 02:41:39;;;;;;;43.92;15.23;;;;;;;-2.23;100.00;101177.53;5011868;28;20022;-76
2022/12/12 02:44:19;;;;;;;44.08;16.13;;;;;;;-2.25;100.00;101181.72;5012428;28;20037;-76
2022/12/12 02:47:08;;;;;;;48.88;17.23;;;;;;;-2.31;100.00;101182.34;4994699;28;20542;-76
2022/12/12 02:49:47;;;;;;;45.55;16.23;;;;;;;-2.39;100.00;101174.47;5008611;28;20033;-76
2022/12/12 02:52:13;;;;;;;43.97;16.45;;;;;;;-2.46;100.00;101179.31;5011750;28;20026;-76
2022/12/12 02:54:38;;;;;;;44.80;16.40;;;;;;;-2.53;100.00;101173.19;4985330;28;20370;-76
2022/12/12 02:57:13;;;;;;;42.65;17.15;;;;;;;-2.61;100.00;101169.50;5009624;28;20120;-76
2022/12/12 02:59:41;;;;;;;43.92;16.80;;;;;;;-2.67;100.00;101176.91;5004957;28;20026;-76
2022/12/12 03:02:17;;;;;;;44.20;15.75;;;;;;;-2.75;100.00;101168.16;5010886;28;20061;-76
2022/12/12 03:08:10;;;;;;;46.75;16.23;;;;;;;-2.86;100.00;101174.50;5010774;28;20040;-76
2022/12/12 03:10:54;;;;;;;43.05;16.75;;;;;;;-2.91;100.00;101173.50;5015014;28;20393;-76
2022/12/12 03:13:29;;;;;;;47.10;17.63;;;;;;;-2.95;100.00;101177.59;5011626;28;20396;-76
2022/12/12 03:16:19;;;;;;;44.47;15.45;;;;;;;-3.00;100.00;101171.47;4994422;28;20022;-76
2022/12/12 03:18:47;;;;;;;44.60;16.02;;;;;;;-3.04;100.00;101171.31;5011723;28;20037;-76
2022/12/12 03:21:44;;;;;;;48.00;17.08;;;;;;;-3.07;100.00;101172.06;5010587;28;20037;-76
2022/12/12 03:24:21;;;;;;;47.08;16.80;;;;;;;-3.14;100.00;101167.63;5009736;28;20409;-77
2022/12/12 03:26:55;;;;;;;42.58;15.73;;;;;;;-3.13;100.00;101173.50;5009227;28;20498;-76
2022/12/12 03:29:29;;;;;;;45.35;16.25;;;;;;;-3.17;100.00;101171.69;5010824;28;20084;-76
2022/12/12 03:32:00;;;;;;;46.30;16.80;;;;;;;-3.25;100.00;101174.81;5011092;28;20030;-76
2022/12/12 03:34:33;;;;;;;49.25;16.45;;;;;;;-3.27;100.00;101178.06;5010463;28;20030;-76
2022/12/12 03:37:19;;;;;;;49.45;17.08;;;;;;;-3.31;100.00;101171.19;5021577;28;20088;-76
2022/12/12 03:39:48;;;;;;;44.53;16.00;;;;;;;-3.34;100.00;101171.06;4988353;28;20046;-76
2022/12/12 03:42:43;;;;;;;48.38;16.55;;;;;;;-3.37;100.00;101174.34;5011888;28;20032;-76
2022/12/12 03:45:13;;;;;;;48.47;16.63;;;;;;;-3.41;100.00;101179.25;4991157;28;20065;-76
2022/12/12 03:47:53;;;;;;;40.15;15.15;;;;;;;-3.44;100.00;101180.00;5011315;28;20420;-76
2022/12/12 03:50:22;;;;;;;46.28;15.70;;;;;;;-3.44;100.00;101180.00;5014597;28;20057;-75
2022/12/12 03:53:16;;;;;;;45.67;16.52;;;;;;;-3.46;100.00;101186.66;5013278;28;20485;-75
2022/12/12 03:56:09;;;;;;;48.78;16.38;;;;;;;-3.46;100.00;101186.66;4998651;28;20049;-76
2022/12/12 03:58:46;;;;;;;52.20;16.48;;;;;;;-3.53;100.00;101187.22;5008404;28;20026;-76
2022/12/12 04:01:13;;;;;;;43.92;15.95;;;;;;;-3.54;100.00;101182.09;5011037;28;20029;-76
2022/12/12 04:04:14;;;;;;;53.00;17.00;;;;;;;-3.58;100.00;101192.13;5011034;28;20010;-76
2022/12/12 04:06:51;;;;;;;46.13;16.15;;;;;;;-3.59;100.00;101194.59;4947953;28;20098;-76
2022/12/12 04:15:23;;;;;;;45.15;15.65;;;;;;;-3.64;100.00;101201.16;5009864;28;20554;-75
2022/12/12 04:17:59;;;;;;;48.15;16.52;;;;;;;-3.65;100.00;101199.44;5011008;28;20052;-75
2022/12/12 04:24:08;;;;;;;45.90;15.13;;;;;;;-3.71;100.00;101197.53;4980923;28;20042;-75
2022/12/12 04:26:47;;;;;;;41.22;15.55;;;;;;;-3.77;100.00;101202.34;5010650;28;20605;-76
2022/12/12 04:29:18;;;;;;;42.15;15.45;;;;;;;-3.77;100.00;101196.44;5010611;28;20492;-75
2022/12/12 04:31:59;;;;;;;45.13;15.90;;;;;;;-3.80;100.00;101193.75;5010871;28;20025;-75
2022/12/12 04:34:35;;;;;;;47.10;15.80;;;;;;;-3.83;100.00;101199.59;5013567;28;20028;-75
2022/12/12 04:37:03;;;;;;;44.55;15.40;;;;;;;-3.86;100.00;101201.13;5016003;28;20037;-75
2022/12/12 04:39:30;;;;;;;43.25;15.90;;;;;;;-3.88;100.00;101205.25;5007808;28;20026;-75
2022/12/12 04:41:57;;;;;;;45.40;16.58;;;;;;;-3.92;100.00;101205.94;4992387;28;20033;-75
2022/12/12 04:44:26;;;;;;;47.42;16.13;;;;;;;-3.93;100.00;101220.25;5010109;28;20026;-75
2022/12/12 04:46:55;;;;;;;43.97;16.13;;;;;;;-3.96;100.00;101212.56;5010557;28;20037;-75
2022/12/12 04:49:26;;;;;;;47.13;16.15;;;;;;;-3.99;100.00;101217.50;5013822;28;20107;-75
2022/12/12 04:51:58;;;;;;;44.85;15.50;;;;;;;-4.03;100.00;101208.06;5016526;28;20038;-75
2022/12/12 04:54:46;;;;;;;44.42;16.48;;;;;;;-4.06;100.00;101208.78;5006377;28;20030;-75
2022/12/12 04:57:23;;;;;;;44.95;15.45;;;;;;;-4.05;100.00;101210.50;4991844;28;20057;-75
2022/12/12 04:59:49;;;;;;;44.70;15.32;;;;;;;-4.07;100.00;101213.78;5009910;28;20044;-75
2022/12/12 05:02:29;;;;;;;47.83;16.73;;;;;;;-4.06;100.00;101212.97;5010064;28;20388;-75
2022/12/12 05:05:05;;;;;;;47.20;15.32;;;;;;;-4.10;100.00;101214.53;5009601;28;20036;-75
2022/12/12 05:07:43;;;;;;;45.63;16.33;;;;;;;-4.13;100.00;101214.38;5011594;28;20041;-75
2022/12/12 05:10:16;;;;;;;38.13;14.73;;;;;;;-4.16;100.00;101204.13;5009296;28;20034;-75
2022/12/12 05:12:46;;;;;;;44.17;16.25;;;;;;;-4.17;100.00;101211.69;5010115;28;20049;-75
2022/12/12 05:15:13;;;;;;;46.30;16.15;;;;;;;-4.20;100.00;101209.88;5009833;28;20271;-75
2022/12/12 05:18:06;;;;;;;43.35;15.15;;;;;;;-4.24;100.00;101207.16;5009261;28;20037;-75
2022/12/12 05:20:32;;;;;;;44.45;15.73;;;;;;;-4.25;100.00;101211.38;5016839;28;20529;-75
2022/12/12 05:22:57;;;;;;;45.72;16.25;;;;;;;-4.30;100.00;101211.97;5008022;28;20029;-75
2022/12/12 05:25:22;;;;;;;42.20;15.82;;;;;;;-4.35;100.00;101213.44;5008557;28;20030;-75
2022/12/12 05:27:48;;;;;;;42.25;14.90;;;;;;;-4.37;100.00;101218.44;5010080;28;20028;-75
2022/12/12 05:30:14;;;;;;;42.15;15.27;;;;;;;-4.44;100.00;101206.34;4991702;28;20029;-75
2022/12/12 05:32:39;;;;;;;49.28;16.35;;;;;;;-4.41;100.00;101216.56;5010263;28;20388;-75
2022/12/12 05:35:06;;;;;;;43.83;14.88;;;;;;;-4.44;100.00;101211.41;5008666;28;20064;-75
2022/12/12 05:37:31;;;;;;;41.78;14.95;;;;;;;-4.44;100.00;101214.78;4991061;28;20022;-75
2022/12/12 05:39:57;;;;;;;46.10;15.82;;;;;;;-4.47;100.00;101214.66;5009046;28;20064;-75
2022/12/12 05:42:22;;;;;;;48.67;16.75;;;;;;;-4.45;100.00;101219.78;5009875;28;20053;-75
2022/12/12 05:44:47;;;;;;;46.53;15.80;;;;;;;-4.49;100.00;101223.81;5009633;28;20030;-75
2022/12/12 05:47:13;;;;;;;42.97;16.08;;;;;;;-4.52;100.00;101222.84;5009211;28;20116;-75
2022/12/12 05:49:38;;;;;;;48.15;15.98;;;;;;;-4.55;100.00;101223.56;5017159;28;20021;-75
2022/12/12 05:52:04;;;;;;;45.80;16.17;;;;;;;-4.59;100.00;101225.91;5010329;28;20069;-75
2022/12/12 05:54:29;;;;;;;46.17;15.82;;;;;;;-4.61;100.00;101228.38;5013084;28;20038;-75
2022/12/12 05:56:55;;;;;;;44.28;15.02;;;;;;;-4.62;100.00;101231.69;5013419;28;20030;-75
2022/12/12 05:59:20;;;;;;;44.78;15.05;;;;;;;-4.66;100.00;101229.84;5013233;28;20286;-75
2022/12/12 06:01:46;;;;;;;45.20;15.07;;;;;;;-4.65;100.00;101230.72;5012225;28;20034;-75
2022/12/12 06:04:11;;;;;;;47.08;15.70;;;;;;;-4.68;100.00;101222.97;5013138;28;20382;-75
2022/12/12 06:06:37;;;;;;;48.65;15.85;;;;;;;-4.69;100.00;101223.75;5012075;28;20032;-75
2022/12/12 06:09:02;;;;;;;43.45;15.57;;;;;;;-4.72;100.00;101226.19;5009158;28;20024;-75
2022/12/12 06:11:27;;;;;;;49.25;16.58;;;;;;;-4.72;100.00;101229.56;5012129;28;20034;-75
2022/12/12 06:13:53;;;;;;;45.88;15.68;;;;;;;-4.75;100.00;101234.47;5012636;28;20042;-75
2022/12/12 06:16:18;;;;;;;45.67;15.13;;;;;;;-4.79;100.00;101230.97;5012984;28;20029;-75
2022/12/12 06:18:48;;;;;;;44.30;14.20;;;;;;;-4.79;100.00;101232.63;5011863;28;20040;-75
2022/12/12 06:21:14;;;;;;;47.95;15.57;;;;;;;-4.80;100.00;101234.28;5009414;28;20022;-75
2022/12/12 06:23:40;;;;;;;50.83;16.10;;;;;;;-4.84;100.00;101231.53;5010196;28;20389;-75
2022/12/12 06:26:07;;;;;;;46.13;15.10;;;;;;;-4.88;100.00;101233.09;5004420;28;20029;-75
2022/12/12 06:28:33;;;;;;;46.25;16.15;;;;;;;-4.87;100.00;101233.94;5002079;28;20026;-75
2022/12/12 06:30:58;;;;;;;47.20;15.73;;;;;;;-4.90;100.00;101242.25;5010470;28;20041;-75
2022/12/12 06:33:26;;;;;;;50.78;15.85;;;;;;;-4.95;100.00;101247.91;5010232;28;20029;-75
2022/12/12 06:36:06;;;;;;;45.58;15.15;;;;;;;-4.94;100.00;101244.59;5010710;28;20216;-75
2022/12/12 06:38:34;;;;;;;48.08;15.57;;;;;;;-4.95;100.00;101246.25;5011078;28;20049;-75
2022/12/12 06:41:03;;;;;;;54.45;17.50;;;;;;;-4.99;100.00;101243.53;5012092;28;20019;-75
2022/12/12 06:43:28;;;;;;;52.17;16.52;;;;;;;-5.04;100.00;101253.41;5008651;28;20447;-75
2022/12/12 06:46:03;;;;;;;55.22;16.15;;;;;;;-5.12;100.00;101247.16;5012450;28;20480;-75
2022/12/12 06:48:31;;;;;;;53.35;15.85;;;;;;;-5.13;100.00;101253.00;5017834;28;20045;-75
2022/12/12 06:50:56;;;;;;;47.45;14.80;;;;;;;-5.14;100.00;101260.50;5012505;28;20033;-75
2022/12/12 06:53:22;;;;;;;49.88;14.80;;;;;;;-5.12;100.00;101262.31;5010995;28;20034;-75
2022/12/12 06:55:47;;;;;;;43.95;14.57;;;;;;;-5.11;100.00;101261.50;5012046;28;20034;-75
2022/12/12 06:58:13;;;;;;;45.50;13.73;;;;;;;-5.11;100.00;101258.97;5012396;28;20037;-75
2022/12/12 07:00:38;;;;;;;49.42;14.20;;;;;;;-5.13;100.00;101273.22;5012076;28;20451;-75
2022/12/12 07:03:04;;;;;;;46.40;14.18;;;;;;;-5.16;100.00;101268.00;5010135;28;20041;-75
2022/12/12 07:05:29;;;;;;;44.55;14.93;;;;;;;-5.14;100.00;101276.53;5010980;28;20257;-75
2022/12/12 07:07:54;;;;;;;45.08;14.57;;;;;;;-5.14;100.00;101270.63;5011324;28;20034;-75
2022/12/12 07:10:20;;;;;;;45.83;14.23;;;;;;;-5.14;100.00;101268.97;4994453;28;20025;-75
2022/12/12 07:12:45;;;;;;;45.58;14.70;;;;;;;-5.17;100.00;101277.25;5007606;28;20089;-75
2022/12/12 07:15:11;;;;;;;42.13;14.63;;;;;;;-5.22;100.00;101277.84;5010331;28;20590;-75
2022/12/12 07:17:36;;;;;;;43.90;13.52;;;;;;;-5.28;100.00;101280.94;5011389;28;20149;-75
2022/12/12 07:20:03;;;;;;;48.50;14.30;;;;;;;-5.30;100.00;101279.13;5011682;28;20029;-75
2022/12/12 07:22:28;;;;;;;48.63;14.82;;;;;;;-5.25;100.00;101290.31;5010155;28;20040;-75
2022/12/12 07:24:53;;;;;;;41.08;12.88;;;;;;;-5.24;100.00;101287.00;5010866;28;20021;-75
2022/12/12 07:27:19;;;;;;;47.35;14.45;;;;;;;-5.25;100.00;101288.66;5011241;28;20107;-75
2022/12/12 07:29:44;;;;;;;50.45;14.77;;;;;;;-5.25;100.00;101302.94;5011489;28;20089;-75
2022/12/12 07:32:09;;;;;;;47.65;14.00;;;;;;;-5.27;100.00;101302.91;5021103;28;20037;-76
2022/12/12 07:34:35;;;;;;;47.30;15.50;;;;;;;-5.30;100.00;101302.75;5009321;28;20034;-75
2022/12/12 07:37:01;;;;;;;49.05;14.15;;;;;;;-5.30;100.00;101294.28;5015600;28;20500;-75
2022/12/12 07:39:30;;;;;;;47.67;14.27;;;;;;;-5.30;100.00;101295.16;5009811;28;20153;-75
2022/12/12 07:41:55;;;;;;;52.88;15.20;;;;;;;-5.33;100.00;101287.44;4990773;28;20041;-75
2022/12/12 07:44:20;;;;;;;42.80;14.40;;;;;;;-5.34;100.00;101302.53;5011109;28;20022;-75
2022/12/12 07:46:46;;;;;;;44.28;14.65;;;;;;;-5.33;100.00;101294.16;5008715;28;20066;-75
2022/12/12 07:49:11;;;;;;;47.42;15.02;;;;;;;-5.33;100.00;101300.09;5003535;28;20025;-75
2022/12/12 07:51:37;;;;;;;43.90;14.75;;;;;;;-5.32;100.00;101300.94;5017545;28;20033;-75
2022/12/12 07:54:03;;;;;;;47.42;14.85;;;;;;;-5.31;100.00;101306.06;5009696;28;20197;-75
2022/12/12 07:56:28;;;;;;;49.42;16.42;;;;;;;-5.29;100.00;101314.56;5011034;28;20148;-75
2022/12/12 07:58:54;;;;;;;50.40;15.38;;;;;;;-5.26;100.00;101302.09;5012311;28;20036;-75
2022/12/12 08:01:25;;;;;;;47.42;15.73;;;;;;;-5.21;100.00;101303.19;5007267;28;20026;-75
2022/12/12 08:03:51;;;;;;;52.13;15.18;;;;;;;-5.19;100.00;101311.72;5002705;28;21570;-75
2022/12/12 08:06:18;;;;;;;48.20;15.00;;;;;;;-5.15;100.00;101316.88;5014351;28;20034;-75
2022/12/12 08:08:45;;;;;;;46.55;14.77;;;;;;;-5.15;100.00;101317.75;5010923;28;20104;-75
2022/12/12 08:11:13;;;;;;;45.58;15.70;;;;;;;-5.17;100.00;101325.25;5010760;28;20033;-75
2022/12/12 08:13:39;;;;;;;51.65;15.48;;;;;;;-5.20;100.00;101325.13;5009370;28;20068;-75
2022/12/12 08:16:06;;;;;;;53.90;15.38;;;;;;;-5.17;100.00;101332.84;5010896;28;20064;-75
2022/12/12 08:18:32;;;;;;;53.50;14.77;;;;;;;-5.17;100.00;101319.34;5009362;28;20037;-75
2022/12/12 08:20:58;;;;;;;45.90;14.90;;;;;;;-5.19;100.00;101323.47;5015181;28;20539;-76
2022/12/12 08:23:23;;;;;;;49.05;14.45;;;;;;;-5.15;100.00;101332.91;5009614;28;20036;-76
2022/12/12 08:25:49;;;;;;;48.35;15.13;;;;;;;-5.14;100.00;101324.53;4993315;28;20104;-76
2022/12/12 08:28:14;;;;;;;47.20;15.20;;;;;;;-5.14;100.00;101328.72;5010670;28;20105;-76
2022/12/12 08:30:40;;;;;;;47.17;14.70;;;;;;;-5.17;100.00;101325.25;5010759;28;20028;-76
2022/12/12 08:33:05;;;;;;;49.95;15.13;;;;;;;-5.15;100.00;101332.91;5010324;28;20463;-75
2022/12/12 08:35:31;;;;;;;52.13;16.23;;;;;;;-5.13;100.00;101338.91;5012660;28;20087;-76
2022/12/12 08:37:57;;;;;;;54.78;15.70;;;;;;;-5.15;100.00;101334.56;5010650;28;20029;-76
2022/12/12 08:40:23;;;;;;;46.17;13.73;;;;;;;-5.13;100.00;101343.97;5010217;28;20026;-75
2022/12/12 08:42:48;;;;;;;45.92;14.20;;;;;;;-5.11;100.00;101346.53;5010494;28;20076;-75
2022/12/12 08:45:13;;;;;;;52.22;14.73;;;;;;;-5.09;100.00;101343.31;5008677;28;20033;-75
2022/12/12 08:47:39;;;;;;;45.70;14.50;;;;;;;-5.07;100.00;101351.84;5010655;28;20021;-75
2022/12/12 08:50:05;;;;;;;44.13;14.15;;;;;;;-5.05;100.00;101345.16;4999935;28;20558;-75
2022/12/12 08:52:30;;;;;;;46.75;14.00;;;;;;;-4.96;100.00;101339.69;5009429;28;20033;-75
2022/12/12 08:54:56;;;;;;;45.42;13.95;;;;;;;-4.92;100.00;101347.50;5010395;28;20025;-75
2022/12/12 08:57:21;;;;;;;50.30;14.55;;;;;;;-4.90;100.00;101347.53;5010543;28;20044;-75
2022/12/12 08:59:47;;;;;;;46.38;14.15;;;;;;;-4.89;100.00;101345.09;5009419;28;20022;-75
2022/12/12 09:02:12;;;;;;;46.53;13.45;;;;;;;-4.85;100.00;101341.94;5010199;28;20401;-75
2022/12/12 09:04:38;;;;;;;51.20;15.15;;;;;;;-4.80;100.00;101350.59;5010810;28;20018;-75
2022/12/12 09:07:05;;;;;;;44.58;15.07;;;;;;;-4.77;100.00;101348.19;5010412;28;20511;-75
2022/12/12 09:09:30;;;;;;;46.35;14.43;;;;;;;-4.71;100.00;101354.34;5009875;28;20032;-75
2022/12/12 09:11:56;;;;;;;51.22;14.27;;;;;;;-4.69;100.00;101355.25;5010114;28;20026;-75
2022/12/12 09:14:21;;;;;;;47.67;13.05;;;;;;;-4.67;100.00;101353.66;4990623;28;20034;-75
2022/12/12 09:16:46;;;;;;;56.65;15.70;;;;;;;-4.65;100.00;101358.00;5009658;28;20498;-75
2022/12/12 09:19:12;;;;;;;50.50;15.00;;;;;;;-4.62;100.00;101353.06;5020356;28;20029;-75
2022/12/12 09:21:37;;;;;;;52.75;14.85;;;;;;;-4.60;100.00;101351.50;5009502;28;20407;-75
2022/12/12 09:24:03;;;;;;;48.97;14.88;;;;;;;-4.55;100.00;101344.97;5012701;28;20026;-75
2022/12/12 09:26:28;;;;;;;48.00;14.27;;;;;;;-4.53;100.00;101353.50;5012957;28;20033;-75
2022/12/12 09:28:54;;;;;;;53.35;15.27;;;;;;;-4.52;100.00;101345.13;5013319;28;20041;-72
2022/12/12 09:31:20;;;;;;;49.03;15.13;;;;;;;-4.51;100.00;101351.91;5013780;28;20022;-72
2022/12/12 09:33:46;;;;;;;49.75;14.50;;;;;;;-4.49;100.00;101347.78;5019411;28;20033;-72
2022/12/12 09:36:12;;;;;;;48.42;14.18;;;;;;;-4.46;100.00;101336.94;5011357;28;20076;-72
2022/12/12 09:38:38;;;;;;;46.67;14.63;;;;;;;-4.44;100.00;101332.81;5014124;28;20480;-72
2022/12/12 09:41:09;;;;;;;49.28;13.95;;;;;;;-4.41;100.00;101346.44;5013838;28;20028;-72
2022/12/12 09:44:01;;;;;;;51.55;13.90;;;;;;;-4.35;100.00;101353.44;5013708;28;20069;-73
2022/12/12 09:46:29;;;;;;;49.13;13.90;;;;;;;-4.32;100.00;101345.13;5012891;28;20488;-72
2022/12/12 09:49:02;;;;;;;46.45;14.13;;;;;;;-4.31;100.00;101349.41;5015986;28;20045;-72
2022/12/12 09:51:27;;;;;;;50.05;15.50;;;;;;;-4.29;100.00;101338.53;5018016;28;20510;-72
2022/12/12 09:53:53;;;;;;;57.17;15.85;;;;;;;-4.25;100.00;101344.59;5009183;28;20030;-73
2022/12/12 09:56:48;;;;;;;50.92;15.15;;;;;;;-4.23;100.00;101336.25;5012647;28;20030;-72
2022/12/12 09:59:26;;;;;;;49.88;15.32;;;;;;;-4.21;100.00;101347.31;4973399;28;20046;-72
2022/12/12 10:02:08;;;;;;;45.15;14.38;;;;;;;-4.17;100.00;101345.81;5013579;28;20018;-72
2022/12/12 10:04:56;;;;;;;47.90;13.85;;;;;;;-4.16;100.00;101343.31;5017023;28;20108;-72
2022/12/12 10:07:33;;;;;;;48.60;14.40;;;;;;;-4.12;100.00;101336.75;5017628;28;20599;-72
2022/12/12 10:10:04;;;;;;;43.38;13.63;;;;;;;-4.07;100.00;101351.31;5012227;28;20038;-75
2022/12/12 10:12:32;;;;;;;53.35;14.80;;;;;;;-4.07;100.00;101333.59;5012503;28;20049;-75
2022/12/12 10:15:01;;;;;;;51.28;13.77;;;;;;;-4.01;100.00;101340.59;5013184;28;20041;-75
2022/12/12 10:17:26;;;;;;;47.38;13.75;;;;;;;-3.98;100.00;101335.66;5013700;28;20029;-75
2022/12/12 10:19:58;;;;;;;50.80;15.02;;;;;;;-3.97;100.00;101336.53;5023304;28;20460;-75
2022/12/12 10:22:37;;;;;;;49.45;15.15;;;;;;;-3.94;100.00;101334.97;5017129;28;20121;-75
2022/12/12 10:25:30;;;;;;;45.75;13.90;;;;;;;-3.88;100.00;101334.38;5012271;28;20173;-75
2022/12/12 10:28:08;;;;;;;45.78;13.98;;;;;;;-3.83;100.00;101338.00;5012701;28;20037;-75
2022/12/12 10:30:42;;;;;;;40.65;13.63;;;;;;;-3.81;100.00;101336.38;5012680;28;20029;-75
2022/12/12 10:33:34;;;;;;;49.80;14.68;;;;;;;-3.79;100.00;101334.78;5012422;28;20018;-75
2022/12/12 10:36:05;;;;;;;46.70;13.43;;;;;;;-3.76;100.00;101333.25;4989956;28;20053;-75
2022/12/12 10:38:39;;;;;;;48.88;13.73;;;;;;;-3.73;100.00;101335.88;5015472;28;20025;-72
2022/12/12 10:41:15;;;;;;;44.42;13.88;;;;;;;-3.71;100.00;101334.28;5008200;28;20033;-72
2022/12/12 10:44:20;;;;;;;53.75;14.70;;;;;;;-3.67;100.00;101328.53;5010301;28;20017;-72
2022/12/12 10:46:57;;;;;;;45.35;12.95;;;;;;;-3.62;100.00;101323.69;5007638;28;20050;-73
2022/12/12 10:49:23;;;;;;;45.47;13.73;;;;;;;-3.59;100.00;101317.06;5006894;28;20484;-72
2022/12/12 10:51:50;;;;;;;43.67;14.05;;;;;;;-3.54;100.00;101319.78;5009240;28;20036;-72
2022/12/12 10:54:19;;;;;;;46.25;13.60;;;;;;;-3.51;100.00;101322.44;5011184;28;20068;-72
2022/12/12 10:57:04;;;;;;;43.92;13.18;;;;;;;-3.47;100.00;101321.75;5012656;28;20061;-72
2022/12/12 10:59:30;;;;;;;48.22;13.68;;;;;;;-3.49;100.00;101313.25;5012203;28;20014;-72
2022/12/12 11:01:59;;;;;;;48.58;13.93;;;;;;;-3.41;100.00;101316.09;5011712;28;20041;-73
2022/12/12 11:04:26;;;;;;;46.55;13.68;;;;;;;-3.40;100.00;101317.78;5011786;28;20072;-73
2022/12/12 11:06:53;;;;;;;44.67;13.65;;;;;;;-3.34;100.00;101312.97;5010941;28;20085;-73
2022/12/12 11:09:20;;;;;;;47.88;14.20;;;;;;;-3.28;100.00;101309.03;5009310;28;20057;-75
2022/12/12 11:11:59;;;;;;;45.45;13.98;;;;;;;-3.23;100.00;101307.53;5014577;28;20026;-75
2022/12/12 11:14:36;;;;;;;45.85;13.52;;;;;;;-3.18;100.00;101305.16;5012087;28;20105;-75
2022/12/12 11:17:21;;;;;;;44.05;13.80;;;;;;;-3.12;100.00;101307.06;5011945;28;20022;-75
2022/12/12 11:19:46;;;;;;;43.10;13.68;;;;;;;-3.08;100.00;101301.34;5011651;28;20046;-76
2022/12/12 11:22:13;;;;;;;49.40;13.95;;;;;;;-3.03;100.00;101297.28;5019541;28;20144;-75
2022/12/12 11:24:44;;;;;;;48.28;14.15;;;;;;;-3.00;100.00;101308.41;5013277;28;20036;-75
2022/12/12 11:27:20;;;;;;;42.70;13.55;;;;;;;-2.97;100.00;101305.13;5011931;28;20083;-75
2022/12/12 11:29:48;;;;;;;45.88;13.13;;;;;;;-2.94;100.00;101301.06;5011668;28;20029;-75